sensor_id;sensor_type;location;lat;lon;timestamp;temperature;humidity
24802;DHT22;12898;50.520;12.152;2023-10-19T00:01:55;8.00;99.90
24802;DHT22;12898;50.520;12.152;2023-10-19T00:04:26;8.00;99.90
24802;DHT22;12898;50.520;12.152;2023-10-19T00:06:56;8.00;99.90
24802;DHT22;12898;50.520;12.152;2023-10-19T00:09:22;8.00;99.90
24802;DHT22;12898;50.520;12.152;2023-10-19T00:11:48;7.90;99.90
24802;DHT22;12898;50.520;12.152;2023-10-19T00:14:17;7.90;99.90
24802;DHT22;12898;50.520;12.152;2023-10-19T00:16:44;7.80;99.90
24802;DHT22;12898;50.520;12.152;2023-10-19T00:19:18;7.80;99.90
24802;DHT22;12898;50.520;12.152;2023-10-19T00:21:47;7.70;99.90
24802;DHT22;12898;50.520;12.152;2023-10-19T00:24:17;7.60;99.90
24802;DHT22;12898;50.520;12.152;2023-10-19T00:26:45;7.60;99.90
24802;DHT22;12898;50.520;12.152;2023-10-19T00:29:13;7.50;99.90
24802;DHT22;12898;50.520;12.152;2023-10-19T00:31:56;7.50;99.90
24802;DHT22;12898;50.520;12.152;2023-10-19T00:34:24;7.50;99.90
24802;DHT22;12898;50.520;12.152;2023-10-19T00:36:50;7.50;99.90
24802;DHT22;12898;50.520;12.152;2023-10-19T00:39:17;7.50;99.90
24802;DHT22;12898;50.520;12.152;2023-10-19T00:41:47;7.50;99.90
24802;DHT22;12898;50.520;12.152;2023-10-19T00:44:13;7.50;99.90
24802;DHT22;12898;50.520;12.152;2023-10-19T00:47:00;7.50;99.90
24802;DHT22;12898;50.520;12.152;2023-10-19T00:49:30;7.50;99.90
24802;DHT22;12898;50.520;12.152;2023-10-19T00:51:58;7.50;99.90
24802;DHT22;12898;50.520;12.152;2023-10-19T00:54:29;7.50;99.90
24802;DHT22;12898;50.520;12.152;2023-10-19T00:57:20;7.50;99.90
24802;DHT22;12898;50.520;12.152;2023-10-19T00:59:48;7.50;99.90
24802;DHT22;12898;50.520;12.152;2023-10-19T01:02:19;7.50;99.90
24802;DHT22;12898;50.520;12.152;2023-10-19T01:04:51;7.50;99.90
24802;DHT22;12898;50.520;12.152;2023-10-19T01:07:28;7.40;99.90
24802;DHT22;12898;50.520;12.152;2023-10-19T01:09:56;7.50;99.90
24802;DHT22;12898;50.520;12.152;2023-10-19T01:12:24;7.40;99.90
24802;DHT22;12898;50.520;12.152;2023-10-19T01:15:10;7.50;99.90
24802;DHT22;12898;50.520;12.152;2023-10-19T01:17:48;7.40;99.90
24802;DHT22;12898;50.520;12.152;2023-10-19T01:20:21;7.50;99.90
24802;DHT22;12898;50.520;12.152;2023-10-19T01:22:56;7.40;99.90
24802;DHT22;12898;50.520;12.152;2023-10-19T01:28:12;7.40;99.90
24802;DHT22;12898;50.520;12.152;2023-10-19T01:30:42;7.40;99.90
24802;DHT22;12898;50.520;12.152;2023-10-19T01:33:17;7.30;99.90
24802;DHT22;12898;50.520;12.152;2023-10-19T01:35:47;7.40;99.90
24802;DHT22;12898;50.520;12.152;2023-10-19T01:38:31;7.30;99.90
24802;DHT22;12898;50.520;12.152;2023-10-19T01:41:02;7.30;99.90
24802;DHT22;12898;50.520;12.152;2023-10-19T01:43:33;7.30;99.90
24802;DHT22;12898;50.520;12.152;2023-10-19T01:45:59;7.30;99.90
24802;DHT22;12898;50.520;12.152;2023-10-19T01:48:40;7.30;99.90
24802;DHT22;12898;50.520;12.152;2023-10-19T01:51:11;7.20;99.90
24802;DHT22;12898;50.520;12.152;2023-10-19T01:53:38;7.20;99.90
24802;DHT22;12898;50.520;12.152;2023-10-19T01:56:05;7.20;99.90
24802;DHT22;12898;50.520;12.152;2023-10-19T01:58:35;7.20;99.90
24802;DHT22;12898;50.520;12.152;2023-10-19T02:01:03;7.20;99.90
24802;DHT22;12898;50.520;12.152;2023-10-19T02:03:34;7.20;99.90
24802;DHT22;12898;50.520;12.152;2023-10-19T02:06:03;7.10;99.90
24802;DHT22;12898;50.520;12.152;2023-10-19T02:09:00;7.10;99.90
24802;DHT22;12898;50.520;12.152;2023-10-19T02:11:43;7.10;99.90
24802;DHT22;12898;50.520;12.152;2023-10-19T02:14:13;7.00;99.90
24802;DHT22;12898;50.520;12.152;2023-10-19T02:17:00;7.00;99.90
24802;DHT22;12898;50.520;12.152;2023-10-19T02:19:28;7.00;99.90
24802;DHT22;12898;50.520;12.152;2023-10-19T02:21:56;7.00;99.90
24802;DHT22;12898;50.520;12.152;2023-10-19T02:24:24;7.00;99.90
24802;DHT22;12898;50.520;12.152;2023-10-19T02:26:53;7.00;99.90
24802;DHT22;12898;50.520;12.152;2023-10-19T02:29:20;7.00;99.90
24802;DHT22;12898;50.520;12.152;2023-10-19T02:31:50;6.90;99.90
24802;DHT22;12898;50.520;12.152;2023-10-19T02:34:16;6.90;99.90
24802;DHT22;12898;50.520;12.152;2023-10-19T02:36:44;6.90;99.90
24802;DHT22;12898;50.520;12.152;2023-10-19T02:39:12;6.90;99.90
24802;DHT22;12898;50.520;12.152;2023-10-19T02:41:41;6.90;99.90
24802;DHT22;12898;50.520;12.152;2023-10-19T02:44:14;6.90;99.90
24802;DHT22;12898;50.520;12.152;2023-10-19T02:46:44;6.80;99.90
24802;DHT22;12898;50.520;12.152;2023-10-19T02:49:12;6.90;99.90
24802;DHT22;12898;50.520;12.152;2023-10-19T02:51:46;6.90;99.90
24802;DHT22;12898;50.520;12.152;2023-10-19T02:54:15;6.90;99.90
24802;DHT22;12898;50.520;12.152;2023-10-19T02:56:46;6.90;99.90
24802;DHT22;12898;50.520;12.152;2023-10-19T02:59:16;6.90;99.90
24802;DHT22;12898;50.520;12.152;2023-10-19T03:01:43;6.90;99.90
24802;DHT22;12898;50.520;12.152;2023-10-19T03:04:11;6.90;99.90
24802;DHT22;12898;50.520;12.152;2023-10-19T03:06:38;6.90;99.90
24802;DHT22;12898;50.520;12.152;2023-10-19T03:09:06;6.90;99.90
24802;DHT22;12898;50.520;12.152;2023-10-19T03:11:42;6.90;99.90
24802;DHT22;12898;50.520;12.152;2023-10-19T03:14:10;6.90;99.90
24802;DHT22;12898;50.520;12.152;2023-10-19T03:16:37;6.90;99.90
24802;DHT22;12898;50.520;12.152;2023-10-19T03:19:06;6.90;99.90
24802;DHT22;12898;50.520;12.152;2023-10-19T03:21:33;6.90;99.90
24802;DHT22;12898;50.520;12.152;2023-10-19T03:24:10;6.90;99.90
24802;DHT22;12898;50.520;12.152;2023-10-19T03:26:49;6.90;99.90
24802;DHT22;12898;50.520;12.152;2023-10-19T03:29:16;6.80;99.90
24802;DHT22;12898;50.520;12.152;2023-10-19T03:31:48;6.80;99.90
24802;DHT22;12898;50.520;12.152;2023-10-19T03:34:14;6.80;99.90
24802;DHT22;12898;50.520;12.152;2023-10-19T03:36:43;6.80;99.90
24802;DHT22;12898;50.520;12.152;2023-10-19T03:39:10;6.80;99.90
24802;DHT22;12898;50.520;12.152;2023-10-19T03:41:43;6.80;99.90
24802;DHT22;12898;50.520;12.152;2023-10-19T03:44:10;6.70;99.90
24802;DHT22;12898;50.520;12.152;2023-10-19T03:47:02;6.70;99.90
24802;DHT22;12898;50.520;12.152;2023-10-19T03:49:36;6.70;99.90
24802;DHT22;12898;50.520;12.152;2023-10-19T03:52:04;6.70;99.90
24802;DHT22;12898;50.520;12.152;2023-10-19T03:54:34;6.70;99.90
24802;DHT22;12898;50.520;12.152;2023-10-19T03:57:04;6.70;99.90
24802;DHT22;12898;50.520;12.152;2023-10-19T03:59:31;6.70;99.90
24802;DHT22;12898;50.520;12.152;2023-10-19T04:01:59;6.70;99.90
24802;DHT22;12898;50.520;12.152;2023-10-19T04:04:26;6.70;99.90
24802;DHT22;12898;50.520;12.152;2023-10-19T04:06:55;6.70;99.90
24802;DHT22;12898;50.520;12.152;2023-10-19T04:09:24;6.70;99.90
24802;DHT22;12898;50.520;12.152;2023-10-19T04:11:55;6.70;99.90
24802;DHT22;12898;50.520;12.152;2023-10-19T04:14:21;6.60;99.90
24802;DHT22;12898;50.520;12.152;2023-10-19T04:16:47;6.70;99.90
24802;DHT22;12898;50.520;12.152;2023-10-19T04:19:14;6.60;99.90
24802;DHT22;12898;50.520;12.152;2023-10-19T04:21:41;6.70;99.90
24802;DHT22;12898;50.520;12.152;2023-10-19T04:24:12;6.70;99.90
24802;DHT22;12898;50.520;12.152;2023-10-19T04:26:39;6.70;99.90
24802;DHT22;12898;50.520;12.152;2023-10-19T04:29:06;6.60;99.90
24802;DHT22;12898;50.520;12.152;2023-10-19T04:31:43;6.60;99.90
24802;DHT22;12898;50.520;12.152;2023-10-19T04:34:20;6.60;99.90
24802;DHT22;12898;50.520;12.152;2023-10-19T04:36:50;6.60;99.90
24802;DHT22;12898;50.520;12.152;2023-10-19T04:39:16;6.60;99.90
24802;DHT22;12898;50.520;12.152;2023-10-19T04:41:45;6.60;99.90
24802;DHT22;12898;50.520;12.152;2023-10-19T04:44:14;6.60;99.90
24802;DHT22;12898;50.520;12.152;2023-10-19T04:46:41;6.60;99.90
24802;DHT22;12898;50.520;12.152;2023-10-19T04:49:07;6.60;99.90
24802;DHT22;12898;50.520;12.152;2023-10-19T04:51:34;6.60;99.90
24802;DHT22;12898;50.520;12.152;2023-10-19T04:54:04;6.60;99.90
24802;DHT22;12898;50.520;12.152;2023-10-19T04:56:31;6.60;99.90
24802;DHT22;12898;50.520;12.152;2023-10-19T04:58:57;6.60;99.90
24802;DHT22;12898;50.520;12.152;2023-10-19T05:01:23;6.60;99.90
24802;DHT22;12898;50.520;12.152;2023-10-19T05:03:49;6.60;99.90
24802;DHT22;12898;50.520;12.152;2023-10-19T05:06:14;6.60;99.90
24802;DHT22;12898;50.520;12.152;2023-10-19T05:08:40;6.50;99.90
24802;DHT22;12898;50.520;12.152;2023-10-19T05:11:06;6.50;99.90
24802;DHT22;12898;50.520;12.152;2023-10-19T05:13:32;6.50;99.90
24802;DHT22;12898;50.520;12.152;2023-10-19T05:16:00;6.50;99.90
24802;DHT22;12898;50.520;12.152;2023-10-19T05:18:26;6.50;99.90
24802;DHT22;12898;50.520;12.152;2023-10-19T05:20:52;6.50;99.90
24802;DHT22;12898;50.520;12.152;2023-10-19T05:23:24;6.60;99.90
24802;DHT22;12898;50.520;12.152;2023-10-19T05:25:59;6.60;99.90
24802;DHT22;12898;50.520;12.152;2023-10-19T05:28:27;6.60;99.90
24802;DHT22;12898;50.520;12.152;2023-10-19T05:30:53;6.50;99.90
24802;DHT22;12898;50.520;12.152;2023-10-19T05:33:19;6.60;99.90
24802;DHT22;12898;50.520;12.152;2023-10-19T05:35:50;6.60;99.90
24802;DHT22;12898;50.520;12.152;2023-10-19T05:38:17;6.60;99.90
24802;DHT22;12898;50.520;12.152;2023-10-19T05:40:44;6.60;99.90
24802;DHT22;12898;50.520;12.152;2023-10-19T05:43:11;6.60;99.90
24802;DHT22;12898;50.520;12.152;2023-10-19T05:45:37;6.60;99.90
24802;DHT22;12898;50.520;12.152;2023-10-19T05:48:04;6.60;99.90
24802;DHT22;12898;50.520;12.152;2023-10-19T05:50:35;6.60;99.90
24802;DHT22;12898;50.520;12.152;2023-10-19T05:53:04;6.70;99.90
24802;DHT22;12898;50.520;12.152;2023-10-19T05:55:30;6.60;99.90
24802;DHT22;12898;50.520;12.152;2023-10-19T05:57:57;6.70;99.90
24802;DHT22;12898;50.520;12.152;2023-10-19T06:00:23;6.60;99.90
24802;DHT22;12898;50.520;12.152;2023-10-19T06:02:52;6.60;99.90
24802;DHT22;12898;50.520;12.152;2023-10-19T06:05:18;6.60;99.90
24802;DHT22;12898;50.520;12.152;2023-10-19T06:07:45;6.60;99.90
24802;DHT22;12898;50.520;12.152;2023-10-19T06:10:15;6.60;99.90
24802;DHT22;12898;50.520;12.152;2023-10-19T06:12:46;6.60;99.90
24802;DHT22;12898;50.520;12.152;2023-10-19T06:15:14;6.60;99.90
24802;DHT22;12898;50.520;12.152;2023-10-19T06:17:41;6.60;99.90
24802;DHT22;12898;50.520;12.152;2023-10-19T06:20:08;6.60;99.90
24802;DHT22;12898;50.520;12.152;2023-10-19T06:22:46;6.70;99.90
24802;DHT22;12898;50.520;12.152;2023-10-19T06:25:20;6.70;99.90
24802;DHT22;12898;50.520;12.152;2023-10-19T06:27:50;6.70;99.90
24802;DHT22;12898;50.520;12.152;2023-10-19T06:30:17;6.70;99.90
24802;DHT22;12898;50.520;12.152;2023-10-19T06:32:48;6.70;99.90
24802;DHT22;12898;50.520;12.152;2023-10-19T06:35:19;6.80;99.90
24802;DHT22;12898;50.520;12.152;2023-10-19T06:37:46;6.80;99.90
24802;DHT22;12898;50.520;12.152;2023-10-19T06:40:13;6.80;99.90
24802;DHT22;12898;50.520;12.152;2023-10-19T06:42:43;6.80;99.90
24802;DHT22;12898;50.520;12.152;2023-10-19T06:45:13;6.80;99.90
24802;DHT22;12898;50.520;12.152;2023-10-19T06:47:41;6.90;99.90
24802;DHT22;12898;50.520;12.152;2023-10-19T06:50:08;6.90;99.90
24802;DHT22;12898;50.520;12.152;2023-10-19T06:52:39;6.90;99.90
24802;DHT22;12898;50.520;12.152;2023-10-19T06:55:06;6.90;99.90
24802;DHT22;12898;50.520;12.152;2023-10-19T06:57:52;6.90;99.90
24802;DHT22;12898;50.520;12.152;2023-10-19T07:00:20;7.00;99.90
24802;DHT22;12898;50.520;12.152;2023-10-19T07:02:50;7.00;99.90
24802;DHT22;12898;50.520;12.152;2023-10-19T07:05:17;7.00;99.90
24802;DHT22;12898;50.520;12.152;2023-10-19T07:07:46;7.10;99.90
24802;DHT22;12898;50.520;12.152;2023-10-19T07:10:13;7.10;99.90
24802;DHT22;12898;50.520;12.152;2023-10-19T07:12:43;7.20;99.90
24802;DHT22;12898;50.520;12.152;2023-10-19T07:15:10;7.20;99.90
24802;DHT22;12898;50.520;12.152;2023-10-19T07:17:43;7.20;99.90
24802;DHT22;12898;50.520;12.152;2023-10-19T07:20:11;7.20;99.90
24802;DHT22;12898;50.520;12.152;2023-10-19T07:22:58;7.30;99.90
24802;DHT22;12898;50.520;12.152;2023-10-19T07:25:44;7.30;99.90
24802;DHT22;12898;50.520;12.152;2023-10-19T07:28:11;7.40;99.90
24802;DHT22;12898;50.520;12.152;2023-10-19T07:30:38;7.40;99.90
24802;DHT22;12898;50.520;12.152;2023-10-19T07:33:05;7.50;99.90
24802;DHT22;12898;50.520;12.152;2023-10-19T07:35:34;7.50;99.90
24802;DHT22;12898;50.520;12.152;2023-10-19T07:38:03;7.60;99.90
24802;DHT22;12898;50.520;12.152;2023-10-19T07:40:30;7.60;99.90
24802;DHT22;12898;50.520;12.152;2023-10-19T07:42:56;7.60;99.90
24802;DHT22;12898;50.520;12.152;2023-10-19T07:45:22;7.70;99.90
24802;DHT22;12898;50.520;12.152;2023-10-19T07:47:47;7.70;99.90
24802;DHT22;12898;50.520;12.152;2023-10-19T07:50:14;7.80;99.90
24802;DHT22;12898;50.520;12.152;2023-10-19T07:52:46;7.80;99.90
24802;DHT22;12898;50.520;12.152;2023-10-19T07:55:14;7.80;99.90
24802;DHT22;12898;50.520;12.152;2023-10-19T07:57:41;7.90;99.90
24802;DHT22;12898;50.520;12.152;2023-10-19T08:00:09;7.90;99.90
24802;DHT22;12898;50.520;12.152;2023-10-19T08:02:39;8.00;99.90
24802;DHT22;12898;50.520;12.152;2023-10-19T08:05:07;8.00;99.90
24802;DHT22;12898;50.520;12.152;2023-10-19T08:07:33;8.00;99.90
24802;DHT22;12898;50.520;12.152;2023-10-19T08:10:07;8.00;99.90
24802;DHT22;12898;50.520;12.152;2023-10-19T08:12:36;8.10;99.90
24802;DHT22;12898;50.520;12.152;2023-10-19T08:15:03;8.20;99.90
24802;DHT22;12898;50.520;12.152;2023-10-19T08:17:29;8.20;99.90
24802;DHT22;12898;50.520;12.152;2023-10-19T08:19:55;8.20;99.90
24802;DHT22;12898;50.520;12.152;2023-10-19T08:22:22;8.30;99.90
24802;DHT22;12898;50.520;12.152;2023-10-19T08:24:49;8.40;99.90
24802;DHT22;12898;50.520;12.152;2023-10-19T08:27:15;8.40;99.90
24802;DHT22;12898;50.520;12.152;2023-10-19T08:29:43;8.40;99.90
24802;DHT22;12898;50.520;12.152;2023-10-19T08:32:08;8.40;99.90
24802;DHT22;12898;50.520;12.152;2023-10-19T08:34:36;8.40;99.90
24802;DHT22;12898;50.520;12.152;2023-10-19T08:37:02;8.40;99.90
24802;DHT22;12898;50.520;12.152;2023-10-19T08:39:30;8.40;99.90
24802;DHT22;12898;50.520;12.152;2023-10-19T08:42:05;8.50;99.90
24802;DHT22;12898;50.520;12.152;2023-10-19T08:44:32;8.50;99.90
24802;DHT22;12898;50.520;12.152;2023-10-19T08:46:58;8.50;99.90
24802;DHT22;12898;50.520;12.152;2023-10-19T08:49:27;8.60;99.90
24802;DHT22;12898;50.520;12.152;2023-10-19T08:51:54;8.70;99.90
24802;DHT22;12898;50.520;12.152;2023-10-19T08:54:21;8.80;99.90
24802;DHT22;12898;50.520;12.152;2023-10-19T08:56:47;8.80;99.90
24802;DHT22;12898;50.520;12.152;2023-10-19T08:59:15;8.90;99.90
24802;DHT22;12898;50.520;12.152;2023-10-19T09:01:41;9.00;99.90
24802;DHT22;12898;50.520;12.152;2023-10-19T09:04:12;9.00;99.90
24802;DHT22;12898;50.520;12.152;2023-10-19T09:06:44;9.10;99.90
24802;DHT22;12898;50.520;12.152;2023-10-19T09:09:12;9.10;99.90
24802;DHT22;12898;50.520;12.152;2023-10-19T09:11:51;9.10;99.90
24802;DHT22;12898;50.520;12.152;2023-10-19T09:14:32;9.00;99.90
24802;DHT22;12898;50.520;12.152;2023-10-19T09:16:59;9.00;99.90
24802;DHT22;12898;50.520;12.152;2023-10-19T09:19:42;9.00;99.90
24802;DHT22;12898;50.520;12.152;2023-10-19T09:22:11;9.10;99.90
24802;DHT22;12898;50.520;12.152;2023-10-19T09:24:49;9.20;99.90
24802;DHT22;12898;50.520;12.152;2023-10-19T09:27:18;9.30;99.90
24802;DHT22;12898;50.520;12.152;2023-10-19T09:29:48;9.40;99.90
24802;DHT22;12898;50.520;12.152;2023-10-19T09:32:16;9.60;99.90
24802;DHT22;12898;50.520;12.152;2023-10-19T09:34:44;9.70;99.90
24802;DHT22;12898;50.520;12.152;2023-10-19T09:37:11;9.80;99.90
24802;DHT22;12898;50.520;12.152;2023-10-19T09:39:38;9.80;99.90
24802;DHT22;12898;50.520;12.152;2023-10-19T09:42:11;9.90;99.90
24802;DHT22;12898;50.520;12.152;2023-10-19T09:44:42;10.00;99.90
24802;DHT22;12898;50.520;12.152;2023-10-19T09:47:15;10.10;99.90
24802;DHT22;12898;50.520;12.152;2023-10-19T09:49:50;10.20;99.90
24802;DHT22;12898;50.520;12.152;2023-10-19T09:52:16;10.30;99.90
24802;DHT22;12898;50.520;12.152;2023-10-19T09:55:03;10.50;99.90
24802;DHT22;12898;50.520;12.152;2023-10-19T09:57:45;10.60;99.90
24802;DHT22;12898;50.520;12.152;2023-10-19T10:00:33;10.70;99.90
24802;DHT22;12898;50.520;12.152;2023-10-19T10:03:00;10.80;99.90
24802;DHT22;12898;50.520;12.152;2023-10-19T10:10:44;11.30;99.90
24802;DHT22;12898;50.520;12.152;2023-10-19T10:15:58;11.90;99.90
24802;DHT22;12898;50.520;12.152;2023-10-19T10:18:26;12.00;99.90
24802;DHT22;12898;50.520;12.152;2023-10-19T10:21:06;12.20;99.90
24802;DHT22;12898;50.520;12.152;2023-10-19T10:23:53;12.20;99.90
24802;DHT22;12898;50.520;12.152;2023-10-19T10:26:24;12.10;99.90
24802;DHT22;12898;50.520;12.152;2023-10-19T10:31:47;12.20;99.90
24802;DHT22;12898;50.520;12.152;2023-10-19T10:37:07;13.00;99.90
24802;DHT22;12898;50.520;12.152;2023-10-19T10:39:35;13.10;99.90
24802;DHT22;12898;50.520;12.152;2023-10-19T10:42:09;13.20;99.90
24802;DHT22;12898;50.520;12.152;2023-10-19T10:44:45;13.40;99.90
24802;DHT22;12898;50.520;12.152;2023-10-19T10:47:19;13.50;99.90
24802;DHT22;12898;50.520;12.152;2023-10-19T10:49:48;13.60;99.90
24802;DHT22;12898;50.520;12.152;2023-10-19T10:52:34;13.60;99.90
24802;DHT22;12898;50.520;12.152;2023-10-19T10:55:12;13.50;99.90
24802;DHT22;12898;50.520;12.152;2023-10-19T10:57:40;13.30;99.90
24802;DHT22;12898;50.520;12.152;2023-10-19T11:00:09;13.40;99.90
24802;DHT22;12898;50.520;12.152;2023-10-19T11:02:38;13.30;99.90
24802;DHT22;12898;50.520;12.152;2023-10-19T11:05:11;13.10;99.90
24802;DHT22;12898;50.520;12.152;2023-10-19T11:08:02;12.80;99.90
24802;DHT22;12898;50.520;12.152;2023-10-19T11:10:31;12.60;99.90
24802;DHT22;12898;50.520;12.152;2023-10-19T11:13:04;12.50;99.90
24802;DHT22;12898;50.520;12.152;2023-10-19T11:15:38;12.40;99.90
24802;DHT22;12898;50.520;12.152;2023-10-19T11:18:05;12.50;99.90
24802;DHT22;12898;50.520;12.152;2023-10-19T11:20:34;12.70;99.90
24802;DHT22;12898;50.520;12.152;2023-10-19T11:23:01;12.80;99.90
24802;DHT22;12898;50.520;12.152;2023-10-19T11:25:28;12.80;99.90
24802;DHT22;12898;50.520;12.152;2023-10-19T11:27:56;12.80;99.90
24802;DHT22;12898;50.520;12.152;2023-10-19T11:30:27;12.90;99.90
24802;DHT22;12898;50.520;12.152;2023-10-19T11:32:55;12.90;99.90
24802;DHT22;12898;50.520;12.152;2023-10-19T11:35:29;12.90;99.90
24802;DHT22;12898;50.520;12.152;2023-10-19T11:38:00;12.80;99.90
24802;DHT22;12898;50.520;12.152;2023-10-19T11:40:27;12.70;99.90
24802;DHT22;12898;50.520;12.152;2023-10-19T11:42:54;12.70;99.90
24802;DHT22;12898;50.520;12.152;2023-10-19T11:45:22;12.80;99.90
24802;DHT22;12898;50.520;12.152;2023-10-19T11:47:49;13.00;99.90
24802;DHT22;12898;50.520;12.152;2023-10-19T11:50:16;13.20;99.90
24802;DHT22;12898;50.520;12.152;2023-10-19T11:52:44;13.30;99.90
24802;DHT22;12898;50.520;12.152;2023-10-19T11:55:11;13.50;99.90
24802;DHT22;12898;50.520;12.152;2023-10-19T11:57:39;13.50;99.90
24802;DHT22;12898;50.520;12.152;2023-10-19T12:00:06;13.60;99.90
24802;DHT22;12898;50.520;12.152;2023-10-19T12:02:39;13.80;99.90
24802;DHT22;12898;50.520;12.152;2023-10-19T12:05:07;14.00;99.90
24802;DHT22;12898;50.520;12.152;2023-10-19T12:07:39;14.20;99.90
24802;DHT22;12898;50.520;12.152;2023-10-19T12:10:07;14.00;99.90
24802;DHT22;12898;50.520;12.152;2023-10-19T12:12:37;13.90;99.90
24802;DHT22;12898;50.520;12.152;2023-10-19T12:15:06;14.00;99.90
24802;DHT22;12898;50.520;12.152;2023-10-19T12:17:33;14.20;99.90
24802;DHT22;12898;50.520;12.152;2023-10-19T12:19:59;14.40;99.90
24802;DHT22;12898;50.520;12.152;2023-10-19T12:22:25;14.50;99.90
24802;DHT22;12898;50.520;12.152;2023-10-19T12:24:57;14.50;99.90
24802;DHT22;12898;50.520;12.152;2023-10-19T12:27:24;14.50;99.90
24802;DHT22;12898;50.520;12.152;2023-10-19T12:29:51;14.60;99.90
24802;DHT22;12898;50.520;12.152;2023-10-19T12:32:19;14.50;99.90
24802;DHT22;12898;50.520;12.152;2023-10-19T12:34:47;14.50;99.90
24802;DHT22;12898;50.520;12.152;2023-10-19T12:37:18;14.40;99.90
24802;DHT22;12898;50.520;12.152;2023-10-19T12:39:45;14.20;99.90
24802;DHT22;12898;50.520;12.152;2023-10-19T12:42:14;14.10;99.90
24802;DHT22;12898;50.520;12.152;2023-10-19T12:44:41;14.10;99.90
24802;DHT22;12898;50.520;12.152;2023-10-19T12:47:10;14.20;99.90
24802;DHT22;12898;50.520;12.152;2023-10-19T12:49:40;14.20;99.90
24802;DHT22;12898;50.520;12.152;2023-10-19T12:52:07;14.30;99.90
24802;DHT22;12898;50.520;12.152;2023-10-19T12:54:36;14.20;99.90
24802;DHT22;12898;50.520;12.152;2023-10-19T12:57:03;14.20;99.90
24802;DHT22;12898;50.520;12.152;2023-10-19T12:59:32;14.20;99.90
24802;DHT22;12898;50.520;12.152;2023-10-19T13:02:05;14.20;99.90
24802;DHT22;12898;50.520;12.152;2023-10-19T13:04:34;14.20;99.90
24802;DHT22;12898;50.520;12.152;2023-10-19T13:06:59;14.20;99.90
24802;DHT22;12898;50.520;12.152;2023-10-19T13:09:28;14.10;99.90
24802;DHT22;12898;50.520;12.152;2023-10-19T13:11:58;14.10;99.90
24802;DHT22;12898;50.520;12.152;2023-10-19T13:14:26;13.90;99.90
24802;DHT22;12898;50.520;12.152;2023-10-19T13:16:52;14.00;99.90
24802;DHT22;12898;50.520;12.152;2023-10-19T13:19:20;14.00;99.90
24802;DHT22;12898;50.520;12.152;2023-10-19T13:21:49;14.20;99.90
24802;DHT22;12898;50.520;12.152;2023-10-19T13:24:16;14.30;99.90
24802;DHT22;12898;50.520;12.152;2023-10-19T13:26:46;14.40;99.90
24802;DHT22;12898;50.520;12.152;2023-10-19T13:29:13;14.50;99.90
24802;DHT22;12898;50.520;12.152;2023-10-19T13:31:40;14.60;99.90
24802;DHT22;12898;50.520;12.152;2023-10-19T13:34:06;14.70;99.90
24802;DHT22;12898;50.520;12.152;2023-10-19T13:36:36;14.70;99.90
24802;DHT22;12898;50.520;12.152;2023-10-19T13:39:02;14.60;99.90
24802;DHT22;12898;50.520;12.152;2023-10-19T13:41:29;14.50;99.90
24802;DHT22;12898;50.520;12.152;2023-10-19T13:43:55;14.40;99.90
24802;DHT22;12898;50.520;12.152;2023-10-19T13:46:21;14.20;99.90
24802;DHT22;12898;50.520;12.152;2023-10-19T13:48:49;14.00;99.90
24802;DHT22;12898;50.520;12.152;2023-10-19T13:51:18;14.00;99.90
24802;DHT22;12898;50.520;12.152;2023-10-19T13:53:45;14.00;99.90
24802;DHT22;12898;50.520;12.152;2023-10-19T13:56:13;13.70;99.90
24802;DHT22;12898;50.520;12.152;2023-10-19T13:58:40;13.60;99.90
24802;DHT22;12898;50.520;12.152;2023-10-19T14:01:09;13.50;99.90
24802;DHT22;12898;50.520;12.152;2023-10-19T14:03:36;13.40;99.90
24802;DHT22;12898;50.520;12.152;2023-10-19T14:06:05;13.30;99.90
24802;DHT22;12898;50.520;12.152;2023-10-19T14:08:37;13.30;99.90
24802;DHT22;12898;50.520;12.152;2023-10-19T14:11:04;13.20;99.90
24802;DHT22;12898;50.520;12.152;2023-10-19T14:13:29;13.20;99.90
24802;DHT22;12898;50.520;12.152;2023-10-19T14:15:55;13.20;99.90
24802;DHT22;12898;50.520;12.152;2023-10-19T14:18:21;13.10;99.90
24802;DHT22;12898;50.520;12.152;2023-10-19T14:20:47;13.00;99.90
24802;DHT22;12898;50.520;12.152;2023-10-19T14:23:13;13.00;99.90
24802;DHT22;12898;50.520;12.152;2023-10-19T14:25:39;12.90;99.90
24802;DHT22;12898;50.520;12.152;2023-10-19T14:28:05;12.90;99.90
24802;DHT22;12898;50.520;12.152;2023-10-19T14:30:35;12.90;99.90
24802;DHT22;12898;50.520;12.152;2023-10-19T14:33:01;12.80;99.90
24802;DHT22;12898;50.520;12.152;2023-10-19T14:35:27;12.80;99.90
24802;DHT22;12898;50.520;12.152;2023-10-19T14:37:54;12.80;99.90
24802;DHT22;12898;50.520;12.152;2023-10-19T14:40:23;12.80;99.90
24802;DHT22;12898;50.520;12.152;2023-10-19T14:42:54;12.80;99.90
24802;DHT22;12898;50.520;12.152;2023-10-19T14:45:22;12.80;99.90
24802;DHT22;12898;50.520;12.152;2023-10-19T14:47:55;12.80;99.90
24802;DHT22;12898;50.520;12.152;2023-10-19T14:50:22;12.70;99.90
24802;DHT22;12898;50.520;12.152;2023-10-19T14:52:51;12.70;99.90
24802;DHT22;12898;50.520;12.152;2023-10-19T14:55:18;12.70;99.90
24802;DHT22;12898;50.520;12.152;2023-10-19T14:57:46;12.70;99.90
24802;DHT22;12898;50.520;12.152;2023-10-19T15:00:15;12.70;99.90
24802;DHT22;12898;50.520;12.152;2023-10-19T15:02:47;12.70;99.90
24802;DHT22;12898;50.520;12.152;2023-10-19T15:05:15;12.70;99.90
24802;DHT22;12898;50.520;12.152;2023-10-19T15:07:43;12.60;99.90
24802;DHT22;12898;50.520;12.152;2023-10-19T15:10:23;12.50;99.90
24802;DHT22;12898;50.520;12.152;2023-10-19T15:12:52;12.50;99.90
24802;DHT22;12898;50.520;12.152;2023-10-19T15:15:18;12.50;99.90
24802;DHT22;12898;50.520;12.152;2023-10-19T15:17:44;12.50;99.90
24802;DHT22;12898;50.520;12.152;2023-10-19T15:20:14;12.40;99.90
24802;DHT22;12898;50.520;12.152;2023-10-19T15:22:41;12.40;99.90
24802;DHT22;12898;50.520;12.152;2023-10-19T15:25:07;12.40;99.90
24802;DHT22;12898;50.520;12.152;2023-10-19T15:27:37;12.30;99.90
24802;DHT22;12898;50.520;12.152;2023-10-19T15:30:08;12.20;99.90
24802;DHT22;12898;50.520;12.152;2023-10-19T15:32:37;12.20;99.90
24802;DHT22;12898;50.520;12.152;2023-10-19T15:35:03;12.20;99.90
24802;DHT22;12898;50.520;12.152;2023-10-19T15:37:29;12.10;99.90
24802;DHT22;12898;50.520;12.152;2023-10-19T15:39:56;12.00;99.90
24802;DHT22;12898;50.520;12.152;2023-10-19T15:42:22;12.00;99.90
24802;DHT22;12898;50.520;12.152;2023-10-19T15:44:50;11.90;99.90
24802;DHT22;12898;50.520;12.152;2023-10-19T15:47:16;11.90;99.90
24802;DHT22;12898;50.520;12.152;2023-10-19T15:49:49;11.90;99.90
24802;DHT22;12898;50.520;12.152;2023-10-19T15:52:19;11.90;99.90
24802;DHT22;12898;50.520;12.152;2023-10-19T15:54:48;11.80;99.90
24802;DHT22;12898;50.520;12.152;2023-10-19T15:57:15;11.80;99.90